Time;durP1;ratioP1;P1;durP2;ratioP2;P2;SDS_P1;SDS_P2;PMS_P1;PMS_P2;Temp;Humidity;BMP_temperature;BMP_pressure;BME280_temperature;BME280_humidity;BME280_pressure;Samples;Min_cycle;Max_cycle;Signal;HPM_P1;HPM_P2
2022/09/28 00:04:56;;;;;;;12.07;6.73;;;;;8.80;99177.00;;;;13040740;22;20171;-75
2022/09/28 00:09:58;;;;;;;15.67;8.10;;;;;8.80;99178.00;;;;13040064;22;20183;-75
2022/09/28 00:14:59;;;;;;;20.13;11.90;;;;;8.80;99186.00;;;;13066399;22;20200;-75
2022/09/28 00:20:04;;;;;;;17.93;12.23;;;;;8.80;99184.00;;;;13041553;22;20551;-76
2022/09/28 00:25:06;;;;;;;17.30;11.83;;;;;8.70;99172.00;;;;13065523;22;20209;-76
2022/09/28 00:30:08;;;;;;;17.77;12.27;;;;;8.70;99160.00;;;;13062442;22;20159;-75
2022/09/28 00:35:09;;;;;;;16.23;12.10;;;;;8.70;99165.00;;;;13040618;22;20191;-75
2022/09/28 00:40:10;;;;;;;19.43;12.03;;;;;8.70;99164.00;;;;13040637;22;20195;-75
2022/09/28 00:45:12;;;;;;;14.57;10.97;;;;;8.70;99149.00;;;;13014456;22;20167;-75
2022/09/28 00:50:32;;;;;;;15.17;11.47;;;;;8.80;99164.00;;;;13063777;22;20635;-75
2022/09/28 00:55:54;;;;;;;16.33;10.83;;;;;8.80;99158.00;;;;13064250;22;20262;-75
2022/09/28 01:00:57;;;;;;;15.33;10.80;;;;;8.80;99165.00;;;;13038458;22;20337;-75
2022/09/28 01:06:01;;;;;;;15.67;11.40;;;;;8.80;99172.00;;;;13042046;22;20199;-75
2022/09/28 01:11:03;;;;;;;15.53;12.33;;;;;8.70;99159.00;;;;13069236;22;20530;-75
2022/09/28 01:16:42;;;;;;;16.23;12.87;;;;;8.80;99164.00;;;;13040696;22;20282;-76
2022/09/28 01:22:14;;;;;;;17.40;12.20;;;;;8.70;99161.00;;;;13020361;22;20172;-76
2022/09/28 01:27:31;;;;;;;20.43;11.03;;;;;8.70;99158.00;;;;13043692;22;20228;-76
2022/09/28 01:32:47;;;;;;;13.43;10.30;;;;;8.70;99154.00;;;;13042367;22;20464;-75
2022/09/28 01:37:57;;;;;;;14.30;9.50;;;;;8.60;99147.00;;;;13065849;22;20775;-75
2022/09/28 01:43:05;;;;;;;16.17;10.00;;;;;8.50;99140.00;;;;12992071;22;20182;-75
2022/09/28 01:48:08;;;;;;;15.67;9.43;;;;;8.40;99152.00;;;;12991513;22;20198;-75
2022/09/28 01:53:18;;;;;;;11.50;7.77;;;;;8.30;99159.00;;;;13063693;22;20191;-75
2022/09/28 01:58:28;;;;;;;10.37;7.67;;;;;8.20;99154.00;;;;13040928;22;20202;-75
2022/09/28 02:03:51;;;;;;;10.67;7.87;;;;;8.10;99151.00;;;;13041695;22;20638;-75
2022/09/28 02:08:58;;;;;;;10.03;7.67;;;;;8.00;99152.00;;;;13038670;22;20175;-75
2022/09/28 02:14:13;;;;;;;13.87;8.23;;;;;8.00;99148.00;;;;12994835;22;20195;-75
2022/09/28 02:19:18;;;;;;;10.40;7.80;;;;;7.90;99150.00;;;;13042946;22;20176;-75
2022/09/28 02:24:27;;;;;;;11.43;7.97;;;;;7.90;99154.00;;;;13063606;22;20183;-75
2022/09/28 02:29:28;;;;;;;18.60;8.47;;;;;7.80;99156.00;;;;12991375;22;20174;-75
2022/09/28 02:34:30;;;;;;;12.00;8.17;;;;;7.70;99166.00;;;;13016609;22;20472;-75
2022/09/28 02:39:32;;;;;;;12.00;8.70;;;;;7.80;99148.00;;;;13063306;22;20159;-75
2022/09/28 02:45:14;;;;;;;13.23;8.93;;;;;7.90;99149.00;;;;13064023;22;20673;-75
2022/09/28 02:50:58;;;;;;;18.87;8.83;;;;;7.90;99160.00;;;;13016478;22;20663;-75
2022/09/28 02:56:24;;;;;;;18.20;8.20;;;;;7.90;99150.00;;;;13040979;22;20266;-75
2022/09/28 03:01:34;;;;;;;11.43;6.77;;;;;7.90;99156.00;;;;12990835;22;20178;-75
2022/09/28 03:06:53;;;;;;;13.37;7.73;;;;;8.00;99164.00;;;;13040627;22;20171;-75
2022/09/28 03:11:57;;;;;;;9.20;7.20;;;;;8.10;99163.00;;;;13040810;22;20191;-75
2022/09/28 03:16:59;;;;;;;26.67;8.27;;;;;8.10;99163.00;;;;13016666;22;20198;-75
2022/09/28 03:22:00;;;;;;;11.50;7.50;;;;;8.20;99166.00;;;;13037618;22;20167;-75
2022/09/28 03:27:02;;;;;;;15.07;7.47;;;;;8.20;99162.00;;;;13088857;22;20579;-75
2022/09/28 03:32:03;;;;;;;10.47;7.03;;;;;8.10;99160.00;;;;12989115;22;20175;-76
2022/09/28 03:37:04;;;;;;;13.63;7.10;;;;;8.10;99153.00;;;;13041340;22;20202;-75
2022/09/28 03:42:06;;;;;;;10.03;6.70;;;;;8.00;99155.00;;;;13015727;22;20182;-75
2022/09/28 03:47:12;;;;;;;11.07;5.37;;;;;7.80;99146.00;;;;13089279;22;20159;-75
2022/09/28 03:52:15;;;;;;;9.20;5.37;;;;;7.60;99147.00;;;;12990208;22;20182;-75
2022/09/28 03:57:16;;;;;;;5.37;4.70;;;;;7.40;99138.00;;;;13038992;22;20244;-75
2022/09/28 04:02:17;;;;;;;7.23;4.97;;;;;7.30;99134.00;;;;13014945;22;20662;-75
2022/09/28 04:07:18;;;;;;;10.40;4.20;;;;;7.10;99126.00;;;;13088496;22;20166;-75
2022/09/28 04:12:20;;;;;;;8.30;4.03;;;;;7.10;99138.00;;;;13041003;22;20532;-75
2022/09/28 04:17:22;;;;;;;7.03;4.90;;;;;7.00;99146.00;;;;13040531;22;20200;-75
2022/09/28 04:22:23;;;;;;;8.87;4.57;;;;;7.00;99148.00;;;;13040725;22;20167;-75
2022/09/28 04:32:46;;;;;;;6.50;3.63;;;;;6.90;99157.00;;;;13088096;22;20160;-75
2022/09/28 04:37:47;;;;;;;4.93;3.50;;;;;6.90;99152.00;;;;13061536;22;20615;-75
2022/09/28 04:42:56;;;;;;;6.20;3.27;;;;;6.90;99162.00;;;;13040576;22;20221;-75
2022/09/28 04:47:58;;;;;;;7.03;3.63;;;;;6.80;99170.00;;;;13014400;22;20804;-75
2022/09/28 04:53:25;;;;;;;6.33;3.10;;;;;6.80;99164.00;;;;13059553;22;20175;-75
2022/09/28 04:58:27;;;;;;;7.23;3.73;;;;;6.70;99172.00;;;;13039599;22;20175;-75
2022/09/28 05:03:28;;;;;;;7.73;4.13;;;;;6.70;99165.00;;;;13040531;22;20172;-75
2022/09/28 05:08:56;;;;;;;5.30;3.93;;;;;6.60;99161.00;;;;13066463;22;20507;-75
2022/09/28 05:13:57;;;;;;;10.10;4.90;;;;;6.60;99158.00;;;;13039103;22;20196;-75
2022/09/28 05:18:59;;;;;;;10.60;4.83;;;;;6.50;99154.00;;;;12989388;22;20506;-75
2022/09/28 05:24:06;;;;;;;7.93;4.90;;;;;6.50;99151.00;;;;13087119;22;20164;-75
2022/09/28 05:29:09;;;;;;;6.63;4.43;;;;;6.50;99156.00;;;;13013838;22;20240;-75
2022/09/28 05:34:36;;;;;;;8.90;5.27;;;;;6.40;99160.00;;;;13066738;22;20253;-75
2022/09/28 05:39:38;;;;;;;10.97;5.60;;;;;6.50;99167.00;;;;13089840;22;20785;-76
2022/09/28 05:44:40;;;;;;;6.83;5.70;;;;;6.50;99161.00;;;;13042435;22;20262;-75
2022/09/28 05:49:45;;;;;;;10.33;6.17;;;;;6.40;99159.00;;;;12991621;22;20176;-75
2022/09/28 05:54:47;;;;;;;7.57;5.97;;;;;6.40;99157.00;;;;13088929;22;20251;-76
2022/09/28 05:59:48;;;;;;;12.60;7.23;;;;;6.50;99164.00;;;;13018316;22;20171;-75
2022/09/28 06:04:50;;;;;;;11.20;7.23;;;;;6.60;99165.00;;;;13010849;22;20175;-75
2022/09/28 06:09:52;;;;;;;16.63;8.17;;;;;6.80;99166.00;;;;13056538;22;20214;-75
2022/09/28 06:15:12;;;;;;;16.07;9.33;;;;;7.00;99162.00;;;;12994048;22;20195;-76
2022/09/28 06:20:13;;;;;;;23.57;12.37;;;;;7.30;99174.00;;;;13064932;22;20545;-75
2022/09/28 06:25:29;;;;;;;24.90;15.57;;;;;7.60;99174.00;;;;13042120;22;20202;-75
2022/09/28 06:30:32;;;;;;;24.87;15.73;;;;;7.80;99179.00;;;;13041437;22;20172;-75
2022/09/28 06:35:43;;;;;;;29.80;16.37;;;;;8.00;99180.00;;;;13040800;22;20681;-75
2022/09/28 06:40:44;;;;;;;31.07;17.17;;;;;8.20;99181.00;;;;13041344;22;20171;-75
2022/09/28 06:45:50;;;;;;;25.37;15.70;;;;;8.30;99180.00;;;;13041550;22;20178;-75
2022/09/28 06:51:10;;;;;;;27.40;14.77;;;;;8.50;99187.00;;;;13044858;22;20869;-75
2022/09/28 06:56:30;;;;;;;22.30;13.77;;;;;8.70;99194.00;;;;13045834;22;20196;-75
2022/09/28 07:01:33;;;;;;;18.53;13.80;;;;;8.90;99200.00;;;;13062013;22;20168;-75
2022/09/28 07:06:58;;;;;;;20.53;13.77;;;;;9.30;99196.00;;;;13038554;22;20175;-75
2022/09/28 07:12:17;;;;;;;22.53;13.50;;;;;9.50;99207.00;;;;13012625;22;20226;-75
2022/09/28 07:17:27;;;;;;;20.27;11.83;;;;;9.60;99212.00;;;;13010611;22;20206;-75
2022/09/28 07:22:30;;;;;;;22.00;12.83;;;;;9.60;99222.00;;;;13038374;22;20167;-75
2022/09/28 07:27:47;;;;;;;23.27;13.33;;;;;9.80;99228.00;;;;13039224;22;20240;-75
2022/09/28 07:33:13;;;;;;;19.30;12.93;;;;;9.90;99233.00;;;;13059473;22;20201;-75
2022/09/28 07:38:24;;;;;;;14.53;11.57;;;;;10.00;99237.00;;;;13036374;22;20167;-75
2022/09/28 07:43:26;;;;;;;22.97;13.13;;;;;10.20;99247.00;;;;12984973;22;20467;-75
2022/09/28 07:48:35;;;;;;;21.33;12.50;;;;;10.30;99244.00;;;;13060721;22;20250;-75
2022/09/28 07:53:56;;;;;;;27.87;13.80;;;;;10.60;99262.00;;;;13060857;22;20191;-75
2022/09/28 07:59:36;;;;;;;20.83;11.80;;;;;10.80;99251.00;;;;12802002;23;20185;-75
2022/09/28 08:04:57;;;;;;;21.50;11.83;;;;;11.10;99259.00;;;;12995769;22;20622;-75
2022/09/28 08:09:58;;;;;;;16.50;11.90;;;;;11.30;99261.00;;;;13036938;22;20841;-75
2022/09/28 08:15:03;;;;;;;23.30;14.40;;;;;11.50;99264.00;;;;13111693;22;20191;-75
2022/09/28 08:25:48;;;;;;;19.10;11.90;;;;;12.30;99276.00;;;;13060105;22;20167;-76
2022/09/28 08:30:50;;;;;;;19.20;9.53;;;;;12.50;99269.00;;;;13086689;22;20166;-76
2022/09/28 08:36:12;;;;;;;13.27;9.47;;;;;12.80;99285.00;;;;13047932;22;20544;-76
2022/09/28 08:41:48;;;;;;;11.77;6.53;;;;;13.10;99289.00;;;;13065271;22;20191;-76
2022/09/28 08:53:18;;;;;;;11.18;5.32;;;;;13.70;99306.00;;;;13085774;22;20163;-76
2022/09/28 08:58:42;;;;;;;11.65;4.68;;;;;14.00;99307.00;;;;13065232;22;20585;-76
2022/09/28 09:03:45;;;;;;;8.93;4.60;;;;;14.20;99310.00;;;;13061201;22;20186;-76
2022/09/28 09:09:17;;;;;;;8.88;4.57;;;;;14.50;99310.00;;;;13086120;22;20465;-76
2022/09/28 09:14:26;;;;;;;8.25;4.95;;;;;14.80;99317.00;;;;13061285;22;20188;-76
2022/09/28 09:19:35;;;;;;;7.22;4.15;;;;;15.10;99315.00;;;;13015280;22;20614;-76
2022/09/28 09:25:07;;;;;;;9.57;4.22;;;;;15.30;99311.00;;;;13052323;22;20167;-77
2022/09/28 09:30:18;;;;;;;8.05;3.10;;;;;15.50;99306.00;;;;13040694;22;20171;-76
2022/09/28 09:35:36;;;;;;;7.32;2.92;;;;;15.80;99308.00;;;;13063022;22;20182;-77
2022/09/28 09:41:18;;;;;;;4.43;2.88;;;;;16.00;99307.00;;;;13002844;22;20182;-77
2022/09/28 09:46:56;;;;;;;5.88;2.55;;;;;15.70;99309.00;;;;13115856;22;20160;-77
2022/09/28 09:52:28;;;;;;;6.70;2.60;;;;;15.90;99297.00;;;;13069518;22;20175;-77
2022/09/28 09:57:38;;;;;;;5.70;1.83;;;;;16.10;99297.00;;;;13042560;22;20270;-77
2022/09/28 10:02:49;;;;;;;6.90;2.30;;;;;16.30;99304.00;;;;13089240;22;20174;-77
2022/09/28 10:08:07;;;;;;;3.08;1.50;;;;;15.30;99300.00;;;;13041396;22;20163;-77
2022/09/28 10:13:10;;;;;;;2.97;1.63;;;;;14.70;99308.00;;;;12991733;22;20179;-77
2022/09/28 10:18:14;;;;;;;7.20;2.17;;;;;15.10;99311.00;;;;13064156;22;20168;-78
2022/09/28 10:23:36;;;;;;;6.13;1.77;;;;;14.80;99297.00;;;;13066329;22;20866;-77
2022/09/28 10:28:56;;;;;;;3.85;1.50;;;;;15.10;99288.00;;;;12991694;22;20186;-77
2022/09/28 10:33:59;;;;;;;3.80;1.48;;;;;15.90;99297.00;;;;13012334;22;20187;-77
2022/09/28 10:39:02;;;;;;;1.38;1.08;;;;;16.70;99305.00;;;;13016865;22;20570;-77
2022/09/28 10:44:16;;;;;;;2.72;1.80;;;;;16.90;99309.00;;;;13053164;22;20160;-78
2022/09/28 10:49:48;;;;;;;5.10;1.48;;;;;17.20;99326.00;;;;13065036;22;20171;-78
2022/09/28 10:54:52;;;;;;;2.58;1.23;;;;;14.40;99341.00;;;;13027560;22;20195;-77
2022/09/28 10:59:55;;;;;;;3.80;1.00;;;;;12.50;99352.00;;;;13040037;22;20174;-77
2022/09/28 11:05:05;;;;;;;4.20;0.83;;;;;12.00;99345.00;;;;13039160;22;20175;-75
2022/09/28 11:10:31;;;;;;;1.87;1.10;;;;;11.90;99350.00;;;;13081213;22;20179;-75
2022/09/28 11:15:43;;;;;;;4.47;1.87;;;;;12.30;99346.00;;;;13032801;22;20266;-75
2022/09/28 11:21:06;;;;;;;6.00;1.70;;;;;12.70;99334.00;;;;13086535;22;20166;-75
2022/09/28 11:26:12;;;;;;;3.00;1.50;;;;;13.60;99323.00;;;;13087271;22;20154;-75
2022/09/28 11:31:27;;;;;;;4.40;1.70;;;;;14.60;99320.00;;;;13038450;22;20667;-75
2022/09/28 11:37:06;;;;;;;4.80;1.53;;;;;15.40;99296.00;;;;13085424;22;20279;-76
2022/09/28 11:42:08;;;;;;;4.25;1.42;;;;;17.00;99300.00;;;;13038615;22;20230;-76
2022/09/28 11:47:38;;;;;;;4.22;1.30;;;;;17.40;99294.00;;;;13039132;22;20207;-77
2022/09/28 11:52:50;;;;;;;5.70;1.27;;;;;17.90;99311.00;;;;13011592;22;20206;-77
2022/09/28 11:58:18;;;;;;;4.43;1.10;;;;;17.50;99311.00;;;;13012133;22;20199;-77
2022/09/28 12:03:27;;;;;;;5.53;1.33;;;;;18.70;99308.00;;;;13046329;22;20175;-78
2022/09/28 12:08:41;;;;;;;4.60;1.05;;;;;18.10;99317.00;;;;13043296;22;20194;-77
2022/09/28 12:13:46;;;;;;;1.73;0.90;;;;;16.90;99314.00;;;;13041964;22;20191;-77
2022/09/28 12:18:59;;;;;;;2.28;1.20;;;;;15.70;99312.00;;;;13017119;22;20179;-77
2022/09/28 12:24:17;;;;;;;3.75;1.35;;;;;15.40;99298.00;;;;13067813;22;20171;-77
2022/09/28 12:29:42;;;;;;;4.25;1.50;;;;;16.30;99309.00;;;;13044224;22;20167;-78
2022/09/28 12:34:43;;;;;;;3.20;0.68;;;;;15.70;99298.00;;;;13018541;22;20199;-77
2022/09/28 12:40:05;;;;;;;1.70;0.88;;;;;15.30;99307.00;;;;13043391;22;20175;-77
2022/09/28 12:45:10;;;;;;;1.58;0.93;;;;;14.80;99314.00;;;;13017477;22;20175;-78
2022/09/28 12:50:18;;;;;;;3.53;1.08;;;;;14.70;99299.00;;;;13067028;22;20172;-78
2022/09/28 12:56:06;;;;;;;1.75;0.80;;;;;15.60;99294.00;;;;13027102;22;20294;-78
2022/09/28 13:01:38;;;;;;;1.50;0.93;;;;;15.90;99298.00;;;;13072417;22;20167;-78
2022/09/28 13:07:03;;;;;;;5.28;1.40;;;;;16.10;99312.00;;;;13053875;22;20803;-78
2022/09/28 13:12:29;;;;;;;3.08;1.25;;;;;16.90;99298.00;;;;13077585;22;20232;-78
2022/09/28 13:17:59;;;;;;;3.65;1.00;;;;;17.10;99313.00;;;;13056899;22;20571;-79
2022/09/28 13:23:28;;;;;;;2.88;0.90;;;;;16.40;99312.00;;;;13004952;22;20167;-78
2022/09/28 13:28:31;;;;;;;3.38;1.20;;;;;17.80;99299.00;;;;13081119;22;20378;-78
2022/09/28 13:33:39;;;;;;;3.83;1.00;;;;;18.90;99309.00;;;;13076193;22;20207;-78
2022/09/28 13:38:48;;;;;;;3.50;1.00;;;;;18.00;99307.00;;;;13069786;22;20499;-77
2022/09/28 13:43:49;;;;;;;1.98;0.70;;;;;18.70;99296.00;;;;13118559;22;20167;-78
2022/09/28 13:49:03;;;;;;;4.85;1.10;;;;;18.60;99293.00;;;;13065804;22;20483;-77
2022/09/28 13:54:14;;;;;;;4.82;1.50;;;;;16.30;99317.00;;;;13063916;22;20191;-77
2022/09/28 13:59:27;;;;;;;4.00;1.88;;;;;15.20;99316.00;;;;13069624;22;20770;-77
2022/09/28 14:05:05;;;;;;;2.85;1.50;;;;;15.60;99304.00;;;;13089353;22;20164;-77
2022/09/28 14:10:50;;;;;;;2.83;1.42;;;;;15.10;99310.00;;;;12942147;22;20578;-78
2022/09/28 14:15:51;;;;;;;4.00;1.35;;;;;14.40;99317.00;;;;13043537;22;20546;-77
2022/09/28 14:21:29;;;;;;;3.20;1.83;;;;;14.70;99308.00;;;;13015963;22;20174;-77
2022/09/28 14:26:57;;;;;;;3.17;1.50;;;;;15.20;99317.00;;;;13050257;22;20176;-77
2022/09/28 14:32:09;;;;;;;4.38;1.40;;;;;14.20;99318.00;;;;13038085;22;20175;-77
2022/09/28 14:43:31;;;;;;;4.97;1.57;;;;;13.40;99323.00;;;;13036288;22;20250;-77
2022/09/28 14:48:56;;;;;;;5.43;1.40;;;;;14.20;99291.00;;;;13039204;22;20186;-77
2022/09/28 14:53:59;;;;;;;3.80;1.30;;;;;14.30;99319.00;;;;13056358;22;20193;-77
2022/09/28 14:59:01;;;;;;;3.47;1.30;;;;;14.30;99313.00;;;;13062994;22;20441;-76
2022/09/28 15:04:11;;;;;;;4.03;1.30;;;;;14.10;99315.00;;;;13061809;22;20163;-76
2022/09/28 15:09:30;;;;;;;5.00;1.37;;;;;13.80;99322.00;;;;13112411;22;20187;-77
2022/09/28 15:14:50;;;;;;;2.83;1.20;;;;;13.70;99315.00;;;;13087277;22;20514;-76
2022/09/28 15:20:03;;;;;;;3.00;1.10;;;;;13.70;99322.00;;;;13038551;22;20292;-77
2022/09/28 15:25:13;;;;;;;2.63;1.30;;;;;13.60;99319.00;;;;13113670;22;20200;-77
2022/09/28 15:30:17;;;;;;;3.43;1.73;;;;;13.60;99321.00;;;;13014663;22;20220;-77
2022/09/28 15:35:25;;;;;;;3.07;1.13;;;;;13.90;99323.00;;;;13011922;22;20195;-77
2022/09/28 15:40:33;;;;;;;5.27;1.43;;;;;13.80;99322.00;;;;13086700;22;20168;-77
2022/09/28 15:45:37;;;;;;;5.13;1.30;;;;;13.60;99317.00;;;;13059928;22;20166;-76
2022/09/28 15:50:56;;;;;;;2.10;1.40;;;;;13.20;99317.00;;;;13012138;22;20484;-77
2022/09/28 15:56:08;;;;;;;2.17;0.70;;;;;13.00;99315.00;;;;13010436;22;20195;-76
2022/09/28 16:01:28;;;;;;;3.40;0.77;;;;;13.00;99323.00;;;;13012592;22;20167;-77
2022/09/28 16:06:29;;;;;;;3.10;0.70;;;;;12.90;99318.00;;;;13013521;22;20217;-77
2022/09/28 16:11:38;;;;;;;1.90;0.80;;;;;12.90;99335.00;;;;13087355;22;20611;-77
2022/09/28 16:16:48;;;;;;;3.03;0.93;;;;;12.90;99332.00;;;;13039741;22;20195;-77
2022/09/28 16:21:55;;;;;;;3.60;0.80;;;;;13.00;99330.00;;;;13087640;22;20159;-77
2022/09/28 16:27:03;;;;;;;1.60;0.80;;;;;13.10;99339.00;;;;13038350;22;20258;-77
2022/09/28 16:32:24;;;;;;;0.93;0.83;;;;;13.00;99334.00;;;;12989957;22;20179;-77
2022/09/28 16:37:30;;;;;;;2.07;0.97;;;;;13.00;99335.00;;;;13039583;22;20186;-77
2022/09/28 16:42:31;;;;;;;2.13;0.70;;;;;13.00;99337.00;;;;13058904;22;20591;-77
2022/09/28 16:47:33;;;;;;;1.50;0.87;;;;;12.70;99344.00;;;;12989373;22;20167;-78
2022/09/28 16:58:03;;;;;;;1.37;1.00;;;;;12.10;99350.00;;;;13064325;22;20594;-77
2022/09/28 17:03:17;;;;;;;1.37;1.00;;;;;11.90;99346.00;;;;13061439;22;20171;-76
2022/09/28 17:08:21;;;;;;;2.23;1.23;;;;;11.60;99343.00;;;;13084893;22;20224;-76
2022/09/28 17:13:32;;;;;;;4.30;1.60;;;;;11.40;99347.00;;;;13038076;22;20201;-77
2022/09/28 17:18:36;;;;;;;4.07;1.23;;;;;11.10;99351.00;;;;13060190;22;20587;-76
2022/09/28 17:23:37;;;;;;;4.10;1.43;;;;;10.90;99350.00;;;;13061321;22;20626;-76
2022/09/28 17:28:38;;;;;;;6.87;2.10;;;;;10.60;99355.00;;;;13055089;22;20637;-76
2022/09/28 17:33:39;;;;;;;6.73;1.67;;;;;10.40;99354.00;;;;13014555;22;20213;-77
2022/09/28 17:38:41;;;;;;;5.03;1.90;;;;;10.20;99353.00;;;;13062404;22;20163;-77
2022/09/28 17:43:43;;;;;;;2.00;1.23;;;;;10.00;99359.00;;;;13040812;22;20372;-77
2022/09/28 17:48:45;;;;;;;2.73;1.67;;;;;9.80;99356.00;;;;13038662;22;20160;-76
2022/09/28 17:53:47;;;;;;;2.57;1.90;;;;;9.70;99368.00;;;;12989178;22;20195;-76
2022/09/28 17:58:48;;;;;;;2.90;2.20;;;;;9.60;99362.00;;;;13061620;22;20167;-76
2022/09/28 18:03:49;;;;;;;3.60;1.80;;;;;9.50;99364.00;;;;13039031;22;20182;-77
2022/09/28 18:08:50;;;;;;;4.40;1.97;;;;;9.40;99361.00;;;;13013682;22;20221;-76
2022/09/28 18:13:51;;;;;;;3.70;1.90;;;;;9.40;99366.00;;;;13085505;22;20221;-76
2022/09/28 18:18:53;;;;;;;5.43;2.00;;;;;9.30;99365.00;;;;13033350;22;20200;-76
2022/09/28 18:23:54;;;;;;;9.30;3.13;;;;;9.20;99369.00;;;;13035251;22;20175;-76
2022/09/28 18:28:55;;;;;;;6.20;2.87;;;;;9.10;99382.00;;;;13057375;22;20163;-76
2022/09/28 18:34:00;;;;;;;6.47;3.17;;;;;9.00;99380.00;;;;13013981;22;20725;-76
2022/09/28 18:39:02;;;;;;;2.83;2.33;;;;;9.00;99386.00;;;;12988270;22;20186;-76
2022/09/28 18:44:03;;;;;;;2.47;2.13;;;;;8.90;99392.00;;;;13038133;22;20172;-76
2022/09/28 18:49:05;;;;;;;3.70;1.77;;;;;8.90;99387.00;;;;13040424;22;20186;-76
2022/09/28 18:54:06;;;;;;;8.77;2.70;;;;;8.80;99394.00;;;;13060075;22;20251;-76
2022/09/28 18:59:08;;;;;;;8.60;2.43;;;;;8.70;99388.00;;;;13085123;22;20175;-76
2022/09/28 19:04:22;;;;;;;8.57;3.43;;;;;8.70;99390.00;;;;13038698;22;20195;-76
2022/09/28 19:09:25;;;;;;;13.60;9.37;;;;;8.50;99395.00;;;;13060906;22;20652;-76
2022/09/28 19:14:26;;;;;;;9.23;6.20;;;;;8.50;99398.00;;;;13062132;22;20198;-76
2022/09/28 19:19:28;;;;;;;6.83;5.30;;;;;8.40;99393.00;;;;12985806;22;20202;-76
2022/09/28 19:24:29;;;;;;;10.83;6.73;;;;;8.30;99403.00;;;;13032110;22;20206;-76
2022/09/28 19:29:31;;;;;;;8.97;4.07;;;;;8.20;99399.00;;;;13082307;22;20183;-76
2022/09/28 19:34:32;;;;;;;14.10;8.37;;;;;8.20;99403.00;;;;13037697;22;20199;-76
2022/09/28 19:39:33;;;;;;;15.23;10.00;;;;;8.10;99406.00;;;;13059476;22;20623;-76
2022/09/28 19:44:36;;;;;;;15.97;6.87;;;;;8.00;99415.00;;;;13035889;22;20178;-76
2022/09/28 19:49:40;;;;;;;14.23;8.30;;;;;8.00;99417.00;;;;13038310;22;20170;-76
2022/09/28 19:54:43;;;;;;;35.67;18.80;;;;;8.00;99423.00;;;;13034562;22;20273;-76
2022/09/28 19:59:44;;;;;;;26.03;13.30;;;;;8.00;99417.00;;;;13084435;22;20523;-76
2022/09/28 20:04:51;;;;;;;21.97;10.97;;;;;8.00;99423.00;;;;13058309;22;20159;-76
2022/09/28 20:09:52;;;;;;;26.20;13.17;;;;;8.00;99422.00;;;;13084554;22;20189;-76
2022/09/28 20:14:53;;;;;;;18.20;8.63;;;;;8.00;99417.00;;;;13033384;22;20272;-76
2022/09/28 20:19:54;;;;;;;14.33;6.47;;;;;7.90;99413.00;;;;13080377;22;20194;-76
2022/09/28 20:24:56;;;;;;;9.50;5.23;;;;;7.90;99419.00;;;;13080712;22;20215;-76
2022/09/28 20:29:58;;;;;;;15.67;7.07;;;;;7.80;99425.00;;;;13035882;22;20221;-76
2022/09/28 20:34:59;;;;;;;11.03;5.73;;;;;7.70;99418.00;;;;13038708;22;20188;-76
2022/09/28 20:40:00;;;;;;;8.97;4.50;;;;;7.70;99427.00;;;;13065389;22;20197;-76
2022/09/28 20:45:03;;;;;;;9.13;4.87;;;;;7.60;99431.00;;;;13033884;22;20167;-76
2022/09/28 20:50:05;;;;;;;8.10;5.23;;;;;7.60;99421.00;;;;13013731;22;20198;-76
2022/09/28 20:55:07;;;;;;;9.53;5.47;;;;;7.50;99430.00;;;;13061160;22;20213;-76
2022/09/28 21:00:09;;;;;;;10.60;6.80;;;;;7.50;99429.00;;;;13065562;22;20805;-76
2022/09/28 21:05:10;;;;;;;9.93;6.03;;;;;7.50;99429.00;;;;13116179;22;20659;-76
2022/09/28 21:10:12;;;;;;;9.27;6.70;;;;;7.40;99434.00;;;;13062194;22;20391;-76
2022/09/28 21:15:13;;;;;;;11.10;6.07;;;;;7.30;99426.00;;;;13019512;22;20570;-76
2022/09/28 21:20:14;;;;;;;8.37;7.27;;;;;7.30;99428.00;;;;13044164;22;20172;-76
2022/09/28 21:25:15;;;;;;;9.17;7.47;;;;;7.30;99440.00;;;;13090383;22;20163;-76
2022/09/28 21:30:18;;;;;;;10.20;7.10;;;;;7.30;99435.00;;;;13064830;22;20168;-76
2022/09/28 21:35:19;;;;;;;10.87;7.73;;;;;7.20;99436.00;;;;13042767;22;20286;-76
2022/09/28 21:40:21;;;;;;;12.50;8.00;;;;;7.20;99429.00;;;;13041788;22;20175;-76
2022/09/28 21:45:23;;;;;;;11.30;8.13;;;;;7.10;99434.00;;;;13090205;22;20706;-76
2022/09/28 21:50:25;;;;;;;9.77;8.40;;;;;7.10;99438.00;;;;13042733;22;20262;-76
2022/09/28 21:55:26;;;;;;;12.40;9.17;;;;;7.10;99443.00;;;;13016199;22;20202;-76
2022/09/28 22:00:27;;;;;;;14.97;9.47;;;;;7.10;99444.00;;;;13089967;22;20734;-76
2022/09/28 22:05:29;;;;;;;11.80;8.43;;;;;7.10;99451.00;;;;13041538;22;20167;-76
2022/09/28 22:10:30;;;;;;;12.73;8.53;;;;;7.00;99454.00;;;;13042214;22;20194;-76
2022/09/28 22:15:31;;;;;;;9.50;8.13;;;;;7.10;99452.00;;;;13090506;22;20821;-76
2022/09/28 22:20:32;;;;;;;10.43;8.17;;;;;7.20;99451.00;;;;13063853;22;20166;-76
2022/09/28 22:25:34;;;;;;;9.17;8.03;;;;;7.20;99450.00;;;;13090253;22;20163;-76
2022/09/28 22:30:35;;;;;;;10.97;8.17;;;;;7.20;99456.00;;;;12990198;22;20171;-76
2022/09/28 22:35:36;;;;;;;11.60;9.63;;;;;7.20;99458.00;;;;13015175;22;20191;-76
2022/09/28 22:40:41;;;;;;;11.97;8.13;;;;;7.20;99452.00;;;;13063032;22;20163;-76
2022/09/28 22:45:43;;;;;;;10.60;7.70;;;;;7.10;99468.00;;;;13090436;22;20170;-76
2022/09/28 22:50:49;;;;;;;8.13;7.23;;;;;7.10;99468.00;;;;13089450;22;20159;-76
2022/09/28 22:55:51;;;;;;;8.50;6.77;;;;;7.10;99466.00;;;;13037823;22;20191;-76
2022/09/28 23:00:52;;;;;;;9.13;6.63;;;;;7.00;99462.00;;;;12991294;22;20313;-76
2022/09/28 23:05:55;;;;;;;11.60;7.67;;;;;7.00;99460.00;;;;13040592;22;20246;-76
2022/09/28 23:10:56;;;;;;;8.50;7.37;;;;;7.00;99462.00;;;;13041403;22;20195;-76
2022/09/28 23:16:02;;;;;;;11.37;7.30;;;;;7.00;99458.00;;;;13117745;22;20187;-76
2022/09/28 23:21:06;;;;;;;11.47;7.30;;;;;7.00;99464.00;;;;13041928;22;20168;-76
2022/09/28 23:26:12;;;;;;;12.27;7.03;;;;;7.00;99459.00;;;;13063804;22;20825;-76
2022/09/28 23:31:16;;;;;;;9.97;7.23;;;;;7.00;99462.00;;;;13087579;22;20247;-76
2022/09/28 23:36:17;;;;;;;9.60;6.57;;;;;6.90;99456.00;;;;13066836;22;20282;-76
2022/09/28 23:41:19;;;;;;;8.50;6.70;;;;;6.80;99458.00;;;;13087591;22;20163;-76
2022/09/28 23:46:20;;;;;;;12.57;7.37;;;;;6.80;99460.00;;;;13041302;22;20252;-76
2022/09/28 23:51:22;;;;;;;11.13;6.47;;;;;6.80;99454.00;;;;13062594;22;20238;-76
2022/09/28 23:56:23;;;;;;;10.70;7.57;;;;;6.80;99446.00;;;;13015241;22;20195;-76
